Time;durP1;ratioP1;P1;durP2;ratioP2;P2;SDS_P1;SDS_P2;PMS_P1;PMS_P2;Temp;Humidity;BMP_temperature;BMP_pressure;BME280_temperature;BME280_humidity;BME280_pressure;Samples;Min_cycle;Max_cycle;Signal;HPM_P1;HPM_P2
2021/12/05 00:20:30;;;;;;;51.13;26.63;;;6.10;97.40;;;5.97;70.45;94305.75;5068795;28;21036;-59
2021/12/05 00:22:59;;;;;;;51.63;25.40;;;6.10;97.50;;;5.95;70.46;94321.53;5066595;28;20447;-57
2021/12/05 00:25:29;;;;;;;59.43;26.00;;;6.10;97.60;;;5.91;70.55;94314.88;5069449;28;20474;-58
2021/12/05 00:28:11;;;;;;;50.90;25.50;;;6.00;97.50;;;5.88;70.37;94320.34;5068680;28;20443;-57
2021/12/05 00:31:12;;;;;;;47.27;24.87;;;6.00;97.60;;;5.87;70.59;94318.69;5066177;28;20549;-59
2021/12/05 00:33:51;;;;;;;47.33;24.03;;;6.00;97.60;;;5.85;70.12;94312.78;5068946;28;20451;-58
2021/12/05 00:45:13;;;;;;;46.03;24.20;;;6.00;97.60;;;5.84;70.58;94311.09;5068436;28;20434;-59
2021/12/05 00:47:52;;;;;;;48.93;23.90;;;6.00;97.60;;;5.80;70.49;94307.94;5069116;28;20439;-57
2021/12/05 00:51:02;;;;;;;37.97;21.47;;;5.90;97.70;;;5.77;70.14;94309.97;5066790;28;20447;-57
2021/12/05 00:56:23;;;;;;;37.97;21.73;;;5.90;97.60;;;5.75;70.76;94299.66;5068090;28;20497;-58
2021/12/05 01:04:46;;;;;;;43.30;23.07;;;5.90;97.60;;;5.72;70.53;94286.84;5068822;28;20592;-58
2021/12/05 01:10:08;;;;;;;51.10;27.73;;;5.80;97.90;;;5.69;70.52;94279.28;5065824;28;20446;-58
2021/12/05 01:13:00;;;;;;;42.03;24.50;;;5.80;97.80;;;5.67;71.01;94281.16;5068700;28;20814;-58
2021/12/05 01:15:28;;;;;;;46.40;20.70;;;5.80;97.90;;;5.66;71.11;94277.75;5066471;28;20491;-58
2021/12/05 01:18:04;;;;;;;35.20;21.23;;;5.80;97.90;;;5.65;70.74;94277.84;5068529;28;21010;-57
2021/12/05 01:20:34;;;;;;;46.70;22.03;;;5.80;98.00;;;5.64;71.30;94271.81;5069466;28;20466;-57
2021/12/05 01:23:06;;;;;;;37.20;21.20;;;5.80;98.00;;;5.63;70.82;94270.16;5069062;28;20462;-58
2021/12/05 01:25:43;;;;;;;33.80;20.13;;;5.80;98.00;;;5.64;70.90;94260.53;5067553;28;20538;-58
2021/12/05 01:28:22;;;;;;;39.37;21.77;;;5.80;97.90;;;5.62;71.04;94258.06;5063784;28;20439;-59
2021/12/05 01:30:55;;;;;;;47.17;21.73;;;5.80;98.10;;;5.60;70.72;94257.38;5068167;28;20474;-57
2021/12/05 01:33:30;;;;;;;37.63;19.67;;;5.70;98.00;;;5.57;71.17;94261.03;5068711;28;20450;-58
2021/12/05 01:36:10;;;;;;;45.13;20.07;;;5.70;98.10;;;5.55;70.90;94257.72;5068628;28;20490;-60
2021/12/05 01:38:55;;;;;;;42.03;20.40;;;5.70;97.90;;;5.52;70.87;94252.78;5067776;28;20442;-57
2021/12/05 01:58:04;;;;;;;38.10;20.63;;;5.60;98.00;;;5.48;70.80;94259.19;5067932;28;20588;-58
2021/12/05 02:08:58;;;;;;;36.00;20.13;;;5.60;98.00;;;5.52;70.90;94271.03;5034691;28;20447;-60
2021/12/05 02:11:56;;;;;;;44.10;23.33;;;5.70;98.00;;;5.53;71.02;94274.44;5063464;28;20524;-60
2021/12/05 02:33:53;;;;;;;41.03;21.90;;;5.90;98.40;;;5.83;71.68;94273.75;5068050;28;20442;-60
2021/12/05 02:36:39;;;;;;;39.87;21.93;;;5.90;98.50;;;5.86;71.09;94273.50;5065011;28;20477;-58
2021/12/05 02:42:07;;;;;;;36.13;22.80;;;6.00;98.50;;;5.93;71.55;94265.97;5051491;28;21081;-58
2021/12/05 02:44:35;;;;;;;47.83;23.23;;;6.00;98.50;;;5.97;71.33;94267.44;5065710;28;20445;-58
2021/12/05 02:47:07;;;;;;;41.50;22.30;;;6.00;98.50;;;5.98;71.03;94266.47;5067571;28;21064;-59
2021/12/05 02:49:36;;;;;;;43.43;23.23;;;6.10;98.50;;;6.03;71.24;94272.13;5064970;28;20996;-58
2021/12/05 02:52:07;;;;;;;38.57;21.57;;;6.10;98.50;;;6.06;70.84;94265.84;5068700;28;21013;-61
2021/12/05 02:54:46;;;;;;;39.90;21.43;;;6.20;98.50;;;6.09;71.41;94258.56;5071429;28;20478;-59
2021/12/05 02:57:14;;;;;;;38.33;22.00;;;6.20;98.60;;;6.12;71.03;94260.13;5070908;28;20482;-59
2021/12/05 02:59:46;;;;;;;48.17;23.47;;;6.20;98.60;;;6.15;71.37;94270.31;5071648;28;20459;-60
2021/12/05 03:02:16;;;;;;;41.97;22.90;;;6.20;98.60;;;6.17;71.24;94262.34;5071674;28;20861;-57
2021/12/05 03:04:51;;;;;;;46.00;22.20;;;6.30;98.50;;;6.21;70.73;94261.13;5067947;28;20466;-59
2021/12/05 03:07:25;;;;;;;44.60;20.33;;;6.30;98.40;;;6.25;71.06;94259.91;5071245;28;20470;-59
2021/12/05 03:09:53;;;;;;;39.63;21.73;;;6.30;98.50;;;6.29;71.45;94261.31;5068903;28;20466;-59
2021/12/05 03:12:21;;;;;;;43.93;21.03;;;6.40;98.40;;;6.32;71.15;94255.00;5071042;28;20467;-57
2021/12/05 03:14:49;;;;;;;43.67;22.03;;;6.40;98.40;;;6.35;70.45;94245.13;5069574;28;20487;-59
2021/12/05 03:17:17;;;;;;;42.30;21.10;;;6.40;98.20;;;6.38;71.17;94268.38;5070894;28;20455;-59
2021/12/05 03:19:44;;;;;;;39.50;21.47;;;6.50;98.30;;;6.39;70.89;94254.34;5068748;28;20447;-59
2021/12/05 03:22:11;;;;;;;38.00;19.77;;;6.50;98.10;;;6.42;70.87;94253.28;5071134;28;20558;-58
2021/12/05 03:24:39;;;;;;;37.20;20.23;;;6.50;98.40;;;6.45;70.75;94248.59;5070559;28;20450;-59
2021/12/05 03:27:08;;;;;;;44.20;20.70;;;6.50;98.00;;;6.46;70.92;94242.44;5070288;28;21128;-59
2021/12/05 03:29:35;;;;;;;34.70;19.77;;;6.50;98.10;;;6.46;70.14;94250.25;5070357;28;20455;-57
2021/12/05 03:32:03;;;;;;;38.40;20.47;;;6.60;98.00;;;6.46;70.76;94239.81;5070961;28;21037;-59
2021/12/05 03:34:30;;;;;;;38.20;21.47;;;6.60;97.90;;;6.48;70.33;94244.09;5070638;28;20505;-57
2021/12/05 03:36:57;;;;;;;36.10;18.93;;;6.60;97.90;;;6.49;70.22;94240.50;5069759;28;20808;-60
2021/12/05 03:39:26;;;;;;;36.80;19.53;;;6.60;98.00;;;6.48;70.58;94244.09;5070740;28;20451;-58
2021/12/05 03:41:53;;;;;;;31.77;19.10;;;6.60;97.90;;;6.48;70.84;94239.69;5070963;28;20489;-58
2021/12/05 03:44:24;;;;;;;38.83;20.63;;;6.60;98.00;;;6.51;70.63;94242.03;5068226;28;20483;-58
2021/12/05 03:46:52;;;;;;;30.23;18.50;;;6.60;98.00;;;6.53;70.42;94244.53;5071076;28;20479;-57
2021/12/05 03:49:20;;;;;;;33.40;20.17;;;6.60;98.00;;;6.54;70.78;94241.78;5070857;28;20457;-59
2021/12/05 03:51:56;;;;;;;36.03;19.17;;;6.70;98.00;;;6.56;70.31;94242.47;5070756;28;20846;-58
2021/12/05 03:54:24;;;;;;;34.33;18.03;;;6.70;98.00;;;6.56;70.20;94236.41;5069934;28;20446;-57
2021/12/05 03:56:51;;;;;;;33.60;19.10;;;6.60;97.90;;;6.56;70.08;94236.41;5069418;28;20478;-58
2021/12/05 03:59:19;;;;;;;35.57;19.93;;;6.70;97.90;;;6.54;70.58;94239.16;5069518;28;20447;-57
2021/12/05 04:01:48;;;;;;;34.73;18.80;;;6.70;97.90;;;6.53;70.62;94239.28;5070800;28;20470;-59
2021/12/05 04:04:17;;;;;;;39.40;20.33;;;6.60;97.80;;;6.50;69.93;94236.94;5070587;28;20542;-59
2021/12/05 04:06:44;;;;;;;34.73;19.07;;;6.60;97.80;;;6.48;70.60;94249.31;5070432;28;20474;-58
2021/12/05 04:09:12;;;;;;;35.83;18.83;;;6.60;97.80;;;6.46;70.54;94246.84;5070233;28;20454;-57
2021/12/05 04:11:45;;;;;;;37.73;19.17;;;6.60;97.80;;;6.44;70.29;94246.13;5070317;28;20994;-58
2021/12/05 04:14:15;;;;;;;30.87;18.07;;;6.60;97.80;;;6.39;70.22;94251.72;5069903;28;20614;-60
2021/12/05 04:16:43;;;;;;;39.00;20.77;;;6.50;97.90;;;6.36;70.85;94245.94;5070350;28;20559;-58
2021/12/05 04:19:11;;;;;;;30.53;17.73;;;6.50;97.90;;;6.33;70.53;94248.81;5069964;28;20447;-58
2021/12/05 04:21:39;;;;;;;39.30;18.80;;;6.50;97.90;;;6.33;70.39;94248.81;5069883;28;20463;-58
2021/12/05 04:24:07;;;;;;;31.03;19.17;;;6.50;98.10;;;6.31;71.01;94262.00;5069564;28;20451;-58
2021/12/05 04:26:35;;;;;;;43.00;20.27;;;6.40;98.10;;;6.30;70.43;94252.50;5069157;28;20594;-58
2021/12/05 04:29:02;;;;;;;36.57;18.77;;;6.40;98.10;;;6.31;70.98;94259.41;5069295;28;20478;-60
2021/12/05 04:31:29;;;;;;;32.50;20.07;;;6.40;98.10;;;6.31;70.70;94262.00;5068377;28;20486;-57
2021/12/05 04:33:57;;;;;;;36.53;18.87;;;6.40;98.20;;;6.32;70.63;94258.44;5067208;28;20466;-59
2021/12/05 04:36:25;;;;;;;34.20;18.53;;;6.50;98.30;;;6.36;70.92;94267.66;5069580;28;20490;-58
2021/12/05 04:38:52;;;;;;;31.47;18.30;;;6.50;98.30;;;6.38;71.22;94257.94;5069414;28;20459;-57
2021/12/05 04:41:20;;;;;;;36.70;19.17;;;6.50;98.20;;;6.38;70.82;94255.31;5069799;28;20470;-59
2021/12/05 04:43:47;;;;;;;33.97;19.60;;;6.50;98.20;;;6.40;70.81;94271.69;5069364;28;20857;-60
2021/12/05 04:46:17;;;;;;;31.83;18.20;;;6.50;98.20;;;6.41;71.01;94257.69;5069367;28;20470;-59
2021/12/05 04:48:47;;;;;;;32.60;18.93;;;6.50;98.10;;;6.41;70.91;94265.50;5068180;28;20447;-58
2021/12/05 04:51:14;;;;;;;33.07;19.93;;;6.50;98.20;;;6.43;70.36;94287.09;5068201;28;21089;-58
2021/12/05 04:53:43;;;;;;;33.77;19.27;;;6.50;98.10;;;6.43;70.58;94274.03;5069040;28;21312;-57
2021/12/05 04:56:11;;;;;;;31.77;17.57;;;6.60;98.10;;;6.43;70.96;94281.06;5068894;28;20923;-56
2021/12/05 04:58:39;;;;;;;36.20;18.73;;;6.60;98.10;;;6.43;70.74;94276.66;5069030;28;20533;-56
2021/12/05 05:01:07;;;;;;;35.17;18.83;;;6.60;98.10;;;6.45;70.53;94279.13;5068971;28;21014;-57
2021/12/05 05:03:34;;;;;;;37.00;19.30;;;6.60;98.20;;;6.47;70.66;94274.59;5066698;28;20454;-59
2021/12/05 05:06:06;;;;;;;40.07;20.03;;;6.60;98.20;;;6.49;70.76;94290.13;5068579;28;20482;-59
2021/12/05 05:08:34;;;;;;;32.03;18.07;;;6.60;98.00;;;6.44;70.45;94293.97;5065675;28;20453;-59
2021/12/05 05:11:04;;;;;;;32.50;18.70;;;6.60;97.90;;;6.42;71.07;94288.03;5069507;28;20470;-58
2021/12/05 05:13:32;;;;;;;33.30;18.03;;;6.60;98.20;;;6.44;71.13;94299.22;5067641;28;20455;-59
2021/12/05 05:16:01;;;;;;;38.30;18.10;;;6.60;98.20;;;6.44;70.86;94288.75;5067996;28;20505;-58
2021/12/05 05:18:37;;;;;;;39.07;20.60;;;6.60;98.30;;;6.44;70.69;94301.81;5068118;28;20458;-58
2021/12/05 05:21:11;;;;;;;31.23;18.10;;;6.60;98.40;;;6.44;70.63;94304.44;5069190;28;20538;-58
2021/12/05 05:23:48;;;;;;;38.50;19.87;;;6.60;98.40;;;6.45;70.86;94303.47;5068394;28;20520;-59
2021/12/05 05:40:31;;;;;;;34.00;21.00;;;6.60;98.50;;;6.48;71.03;94301.56;5067545;28;20986;-59
2021/12/05 05:43:27;;;;;;;34.40;19.90;;;6.60;98.40;;;6.49;71.10;94297.97;5067367;28;20474;-60
2021/12/05 05:46:06;;;;;;;36.50;21.07;;;6.60;98.50;;;6.51;71.40;94307.34;5066231;28;20541;-59
2021/12/05 05:48:48;;;;;;;36.10;22.40;;;6.60;98.50;;;6.54;70.75;94306.28;5065481;28;20981;-59
2021/12/05 05:51:16;;;;;;;38.40;22.07;;;6.60;98.40;;;6.52;70.58;94303.78;5068358;28;20543;-57
2021/12/05 05:53:46;;;;;;;42.00;23.33;;;6.60;98.20;;;6.49;70.54;94292.75;5066118;28;20451;-58
2021/12/05 05:56:18;;;;;;;42.27;21.87;;;6.60;98.20;;;6.47;71.21;94287.66;5068754;28;20963;-59
2021/12/05 05:58:49;;;;;;;40.97;23.30;;;6.60;98.70;;;6.46;71.48;94291.25;5066012;28;20550;-60
2021/12/05 06:01:32;;;;;;;33.27;21.70;;;6.60;98.70;;;6.49;71.86;94295.38;5064120;28;20502;-60
2021/12/05 06:03:59;;;;;;;36.90;21.57;;;6.60;98.70;;;6.55;71.31;94305.28;5065037;28;20538;-60
2021/12/05 06:06:27;;;;;;;44.37;22.30;;;6.60;98.70;;;6.60;71.73;94300.50;5067825;28;20463;-60
2021/12/05 06:08:54;;;;;;;49.80;25.00;;;6.70;98.80;;;6.64;71.37;94300.13;5068805;28;20439;-60
2021/12/05 06:11:22;;;;;;;46.30;26.10;;;6.70;98.80;;;6.67;71.47;94299.03;5068612;28;20869;-59
2021/12/05 06:13:51;;;;;;;49.20;26.60;;;6.80;98.80;;;6.71;71.37;94297.81;5068034;28;20823;-60
2021/12/05 06:16:18;;;;;;;53.50;27.83;;;6.80;98.70;;;6.76;70.91;94310.50;5068671;28;20490;-59
2021/12/05 06:18:46;;;;;;;53.37;28.23;;;6.80;98.70;;;6.80;71.48;94315.34;5068317;28;20459;-59
2021/12/05 06:21:14;;;;;;;52.10;28.83;;;6.90;98.60;;;6.86;70.48;94315.75;5068667;28;20491;-59
2021/12/05 06:23:41;;;;;;;52.23;29.00;;;6.90;98.40;;;6.90;70.60;94317.16;5068443;28;20458;-59
2021/12/05 06:26:11;;;;;;;51.60;27.83;;;7.00;98.40;;;6.94;70.60;94323.78;5066909;28;20483;-58
2021/12/05 06:28:41;;;;;;;47.57;25.70;;;7.00;98.40;;;6.97;70.38;94329.59;5071686;28;20809;-57
2021/12/05 06:31:20;;;;;;;43.30;23.30;;;7.10;98.40;;;7.03;70.97;94349.13;5070476;28;20599;-59
2021/12/05 06:36:57;;;;;;;46.07;24.53;;;7.20;98.50;;;7.13;70.83;94346.56;5070436;28;21040;-59
2021/12/05 06:39:29;;;;;;;51.90;24.40;;;7.20;99.00;;;7.17;70.89;94359.25;5069830;28;20442;-59
2021/12/05 06:42:07;;;;;;;52.30;26.87;;;7.20;98.40;;;7.25;70.66;94357.75;5068390;28;20603;-58
2021/12/05 06:47:24;;;;;;;47.20;25.97;;;7.40;98.10;;;7.41;70.25;94360.72;5069040;28;20596;-59
2021/12/05 06:49:52;;;;;;;39.90;23.30;;;7.50;98.20;;;7.52;69.71;94372.84;5071660;28;20820;-58
2021/12/05 06:52:19;;;;;;;44.40;24.50;;;7.60;97.90;;;7.70;70.04;94381.72;5070858;28;20466;-58
2021/12/05 06:54:46;;;;;;;40.27;22.27;;;7.70;97.90;;;8.15;69.47;94372.56;5071154;28;20454;-59
2021/12/05 06:57:14;;;;;;;42.90;23.80;;;8.20;98.00;;;8.83;68.22;94383.97;5068337;28;20485;-59
2021/12/05 06:59:43;;;;;;;43.90;22.20;;;8.70;97.40;;;9.56;65.28;94372.78;5069953;28;20443;-56
2021/12/05 07:02:11;;;;;;;39.13;21.90;;;9.50;95.70;;;10.30;65.04;94371.78;5066949;28;20462;-57
2021/12/05 07:07:28;;;;;;;38.27;22.37;;;11.00;94.00;;;11.86;62.05;94374.56;5071649;28;20477;-58
2021/12/05 07:09:55;;;;;;;41.33;23.40;;;11.80;92.80;;;12.25;60.24;94375.84;5071491;28;20569;-57
2021/12/05 07:15:14;;;;;;;35.70;22.67;;;12.50;90.30;;;12.40;58.82;94378.69;5066127;28;20928;-58
2021/12/05 07:20:40;;;;;;;40.27;22.73;;;12.40;88.40;;;12.10;59.00;94362.47;5068316;28;20481;-59
2021/12/05 07:23:18;;;;;;;36.77;20.10;;;12.30;88.40;;;11.99;58.99;94368.84;5071540;28;20542;-59
2021/12/05 07:25:52;;;;;;;38.20;22.50;;;12.20;87.70;;;11.76;59.39;94358.09;5067781;28;20482;-59
2021/12/05 07:42:15;;;;;;;37.90;24.20;;;10.70;90.20;;;10.43;61.65;94349.59;5067640;28;20477;-60
2021/12/05 07:44:43;;;;;;;32.57;21.47;;;10.50;90.40;;;10.32;61.92;94348.81;5070992;28;20463;-59
2021/12/05 07:47:12;;;;;;;34.07;21.40;;;10.40;90.70;;;10.26;61.87;94340.69;5070536;28;20483;-59
2021/12/05 07:49:39;;;;;;;32.63;21.00;;;10.30;90.80;;;10.16;62.06;94351.28;5070534;28;20448;-60
2021/12/05 07:52:08;;;;;;;44.40;22.50;;;10.20;91.00;;;10.08;62.31;94348.56;5070752;28;20502;-59
2021/12/05 07:54:37;;;;;;;38.13;21.13;;;10.20;91.20;;;10.01;62.63;94343.91;5069825;28;20451;-60
2021/12/05 07:57:16;;;;;;;39.40;21.70;;;10.00;91.30;;;9.94;62.13;94347.28;5070350;28;20525;-60
2021/12/05 07:59:56;;;;;;;42.73;22.80;;;10.00;91.30;;;9.83;62.88;94345.69;5071009;28;20969;-60
2021/12/05 08:16:13;;;;;;;39.20;24.27;;;9.70;92.80;;;9.76;63.29;94366.50;5069480;28;20490;-60
2021/12/05 08:18:41;;;;;;;40.70;24.43;;;9.80;92.70;;;9.78;63.34;94382.09;5069981;28;20530;-59
2021/12/05 08:21:08;;;;;;;38.60;22.40;;;9.80;92.80;;;9.78;63.23;94376.84;5069404;28;20489;-60
2021/12/05 08:23:37;;;;;;;43.30;23.50;;;9.80;92.80;;;9.78;63.19;94376.84;5069668;28;20459;-58
2021/12/05 08:26:08;;;;;;;39.03;24.47;;;9.80;92.80;;;9.77;63.26;94378.63;5070069;28;20945;-59
2021/12/05 08:28:55;;;;;;;42.90;24.70;;;9.80;92.80;;;9.79;63.44;94374.06;5070085;28;20468;-60
2021/12/05 08:31:32;;;;;;;39.90;24.03;;;9.80;92.80;;;9.83;63.08;94367.53;5070471;28;20855;-59
2021/12/05 08:34:08;;;;;;;49.30;26.13;;;9.80;92.60;;;9.89;63.26;94367.94;5069459;28;20445;-59
2021/12/05 08:39:59;;;;;;;39.00;25.30;;;10.00;92.40;;;10.12;62.87;94363.91;5058442;28;20442;-60
2021/12/05 09:21:37;;;;;;;48.57;28.53;;;13.30;84.30;;;13.91;55.38;94306.72;5068226;28;20474;-60
2021/12/05 09:24:36;;;;;;;50.90;29.93;;;13.70;83.70;;;14.09;55.07;94293.25;5068882;28;20473;-60
2021/12/05 10:03:08;;;;;;;33.10;22.77;;;18.50;65.20;;;18.80;44.80;94233.31;5070857;28;20804;-60
2021/12/05 10:08:42;;;;;;;37.13;24.57;;;18.50;61.50;;;18.19;44.99;94232.50;5072107;28;20504;-60
2021/12/05 10:17:00;;;;;;;38.67;25.77;;;17.70;62.00;;;17.78;44.77;94221.94;5072385;28;20922;-61
2021/12/05 10:34:24;;;;;;;40.80;22.63;;;20.60;57.40;;;22.20;39.89;94205.97;5069810;28;20518;-59
2021/12/05 10:37:11;;;;;;;39.27;21.97;;;21.50;55.80;;;23.13;37.59;94208.25;5070417;28;20862;-59
2021/12/05 10:39:39;;;;;;;33.50;22.60;;;22.30;53.70;;;23.78;33.67;94190.25;5069227;28;20458;-60
2021/12/05 10:42:35;;;;;;;43.97;24.40;;;22.90;47.20;;;24.09;33.84;94180.13;5070330;28;20467;-59
2021/12/05 10:45:04;;;;;;;38.23;23.77;;;23.40;47.00;;;24.41;35.36;94191.16;5082057;28;20439;-58
2021/12/05 10:47:39;;;;;;;29.83;19.50;;;23.70;48.50;;;24.85;34.80;94187.91;5070727;28;20454;-61
2021/12/05 10:50:33;;;;;;;27.97;19.90;;;24.10;47.70;;;25.34;33.16;94185.38;5069975;28;20511;-57
2021/12/05 10:53:33;;;;;;;28.73;19.63;;;24.60;46.40;;;25.57;32.39;94176.25;5071378;28;20449;-57
2021/12/05 10:56:05;;;;;;;33.80;21.13;;;25.00;44.70;;;25.68;32.32;94152.13;5070725;28;20853;-58
2021/12/05 10:58:40;;;;;;;30.13;20.37;;;25.10;43.30;;;25.70;32.65;94163.47;5070065;28;20447;-58
2021/12/05 11:01:12;;;;;;;40.57;23.80;;;25.20;44.00;;;25.53;31.65;94166.22;5070964;28;20458;-58
2021/12/05 11:03:40;;;;;;;37.33;24.53;;;25.30;42.00;;;25.54;32.97;94157.09;5068876;28;21006;-58
2021/12/05 11:06:26;;;;;;;34.87;21.63;;;25.20;43.40;;;25.22;33.03;94155.03;5071063;28;20852;-60
2021/12/05 11:08:58;;;;;;;38.37;24.10;;;25.20;43.00;;;24.86;33.39;94141.09;5069416;28;20447;-59
2021/12/05 11:11:26;;;;;;;34.83;21.30;;;25.20;43.10;;;24.51;32.71;94142.97;5070208;28;20474;-58
2021/12/05 11:13:54;;;;;;;35.83;22.77;;;25.00;42.00;;;24.21;33.71;94150.50;5069097;28;20505;-60
2021/12/05 11:16:38;;;;;;;37.47;20.20;;;24.70;43.20;;;24.01;33.80;94132.16;5070991;28;20483;-61
2021/12/05 11:19:12;;;;;;;28.60;19.20;;;24.40;43.80;;;23.54;34.12;94125.91;5068733;28;20447;-62
2021/12/05 11:21:46;;;;;;;29.93;20.23;;;24.00;43.80;;;23.10;34.76;94125.56;5068812;28;20465;-61
2021/12/05 11:24:21;;;;;;;33.90;18.77;;;23.60;44.30;;;22.73;34.81;94117.78;5071235;28;20436;-61
2021/12/05 11:27:17;;;;;;;30.50;17.60;;;23.10;44.00;;;22.37;35.32;94116.94;5068470;28;20509;-58
2021/12/05 11:30:00;;;;;;;25.70;18.20;;;22.80;44.90;;;22.14;36.00;94113.16;5069141;28;20606;-60
2021/12/05 11:32:36;;;;;;;24.87;16.70;;;22.40;45.50;;;22.02;37.10;94109.63;5068103;28;20493;-60
2021/12/05 11:35:26;;;;;;;27.77;19.03;;;22.10;46.40;;;21.88;36.10;94109.00;5066607;28;20447;-61
2021/12/05 11:38:05;;;;;;;28.40;17.90;;;21.90;45.10;;;21.55;36.72;94096.09;5066921;28;21006;-61
2021/12/05 11:40:50;;;;;;;26.20;17.87;;;21.70;46.50;;;21.24;37.00;94085.38;5067940;28;20471;-65
2021/12/05 11:43:24;;;;;;;27.73;16.30;;;21.30;46.60;;;20.83;38.03;94099.44;5069522;28;20451;-60
2021/12/05 11:45:58;;;;;;;25.17;16.00;;;21.00;47.30;;;20.32;38.55;94080.78;5068289;28;20490;-60
2021/12/05 11:48:27;;;;;;;25.90;16.67;;;20.50;47.60;;;19.65;38.56;94078.59;5068236;28;20504;-60
2021/12/05 11:50:55;;;;;;;26.53;17.60;;;19.90;47.80;;;19.20;39.58;94073.34;5069213;28;21282;-60
2021/12/05 11:53:41;;;;;;;20.00;14.90;;;19.50;48.80;;;18.98;39.95;94070.16;5069757;28;20986;-59
2021/12/05 11:56:10;;;;;;;24.73;14.47;;;19.10;49.80;;;18.81;40.12;94075.09;5069374;28;20553;-61
2021/12/05 11:58:39;;;;;;;24.30;14.40;;;18.80;49.50;;;18.49;40.81;94072.31;5071052;28;20504;-59
2021/12/05 12:01:08;;;;;;;27.77;15.80;;;18.50;50.50;;;18.20;41.47;94069.09;5071386;28;20463;-60
2021/12/05 12:03:36;;;;;;;24.70;15.20;;;18.20;51.80;;;17.99;41.87;94062.16;5069829;28;20474;-60
2021/12/05 12:06:04;;;;;;;20.90;14.10;;;17.90;51.90;;;17.80;42.16;94053.13;5069578;28;21128;-60
2021/12/05 12:08:31;;;;;;;28.13;13.93;;;17.70;52.10;;;17.56;43.04;94054.53;5070289;28;20454;-58
2021/12/05 12:11:01;;;;;;;20.37;13.13;;;17.50;52.50;;;17.33;43.09;94062.88;5063323;28;20510;-59
2021/12/05 12:13:35;;;;;;;24.53;14.10;;;17.30;53.10;;;17.16;43.42;94059.78;5069813;28;20454;-58
2021/12/05 12:16:07;;;;;;;19.03;12.57;;;17.00;53.90;;;17.02;43.82;94053.59;5070277;28;21070;-59
2021/12/05 12:18:36;;;;;;;19.63;11.90;;;16.90;54.20;;;16.88;44.46;94043.97;5070233;28;20490;-58
2021/12/05 12:21:07;;;;;;;14.10;11.30;;;16.80;54.90;;;16.74;44.17;94048.38;5070043;28;20494;-60
2021/12/05 12:23:35;;;;;;;14.47;10.57;;;16.60;54.70;;;16.46;44.38;94043.94;5071146;28;20439;-57
2021/12/05 12:26:03;;;;;;;23.77;10.73;;;16.40;54.70;;;16.18;45.35;94044.81;5069382;28;20590;-58
2021/12/05 12:28:32;;;;;;;19.30;11.33;;;16.20;55.90;;;15.92;46.50;94040.97;5068178;28;20469;-58
2021/12/05 12:31:02;;;;;;;19.50;10.97;;;16.00;57.50;;;15.69;46.56;94035.88;5069381;28;21048;-59
2021/12/05 12:33:31;;;;;;;18.33;9.87;;;15.70;57.40;;;15.55;46.99;94034.13;5067122;28;20460;-59
2021/12/05 12:35:59;;;;;;;15.93;10.73;;;15.50;58.40;;;15.41;47.73;94034.03;5069508;28;20564;-58
2021/12/05 12:38:33;;;;;;;26.23;11.23;;;15.40;59.60;;;15.24;47.74;94033.47;5064599;28;20581;-58
2021/12/05 12:41:02;;;;;;;20.63;10.40;;;15.20;59.50;;;15.00;48.17;94037.28;5069734;28;20474;-62
2021/12/05 12:43:49;;;;;;;16.47;10.20;;;15.00;59.50;;;14.70;49.82;94039.16;5069336;28;20455;-57
2021/12/05 12:46:33;;;;;;;16.47;10.40;;;14.80;61.20;;;14.47;50.37;94026.88;5068400;28;20523;-58
2021/12/05 12:49:17;;;;;;;17.00;10.50;;;14.50;63.50;;;14.29;50.34;94032.53;5069426;28;20959;-60
2021/12/05 12:51:45;;;;;;;17.37;10.13;;;14.30;63.80;;;14.10;50.40;94025.16;5069125;28;20462;-58
2021/12/05 12:54:15;;;;;;;18.23;10.10;;;14.10;63.40;;;13.86;50.50;94018.31;5069689;28;20458;-60
2021/12/05 12:56:43;;;;;;;15.90;9.97;;;13.90;63.80;;;13.64;50.84;94026.13;5068658;28;20467;-60
2021/12/05 12:59:13;;;;;;;21.33;11.97;;;13.70;64.50;;;13.45;51.44;94022.16;5066606;28;20451;-59
2021/12/05 13:02:14;;;;;;;25.20;10.97;;;13.50;65.30;;;13.32;51.65;94032.47;5069176;28;20471;-62
2021/12/05 13:05:00;;;;;;;18.27;11.50;;;13.30;66.20;;;13.18;52.09;94037.50;5067865;28;20950;-58
2021/12/05 13:10:30;;;;;;;18.17;11.03;;;13.10;68.20;;;13.01;52.72;94023.63;5069093;28;20465;-60
2021/12/05 13:13:05;;;;;;;17.57;10.33;;;13.00;68.80;;;13.00;53.53;94018.53;5065494;28;20440;-57
2021/12/05 13:15:43;;;;;;;20.37;9.83;;;12.90;71.40;;;12.95;53.20;94019.06;5067787;28;20470;-60
2021/12/05 13:18:26;;;;;;;15.97;10.90;;;12.90;70.50;;;12.90;53.24;94021.38;5066167;28;21053;-58
2021/12/05 13:21:03;;;;;;;18.20;11.50;;;12.90;70.70;;;12.84;53.90;94017.63;5068491;28;20548;-59
2021/12/05 13:23:38;;;;;;;19.60;10.30;;;12.80;72.00;;;12.79;53.84;94012.03;5068364;28;20447;-60
2021/12/05 13:26:15;;;;;;;12.37;9.47;;;12.80;72.20;;;12.72;54.25;94005.84;5069106;28;21010;-60
2021/12/05 13:28:44;;;;;;;15.67;10.40;;;12.70;73.00;;;12.70;53.89;94013.94;5066604;28;20519;-60
2021/12/05 13:31:41;;;;;;;14.90;9.60;;;12.60;73.30;;;12.64;55.22;94004.06;5068757;28;20509;-59
2021/12/05 13:34:24;;;;;;;15.80;10.70;;;12.60;74.10;;;12.58;54.90;94006.56;5068277;28;20447;-59
2021/12/05 13:36:53;;;;;;;15.87;11.10;;;12.60;74.20;;;12.55;54.58;94013.84;5068840;28;20474;-61
2021/12/05 13:39:37;;;;;;;16.60;11.00;;;12.50;74.00;;;12.46;55.26;94014.88;5066338;28;20443;-60
2021/12/05 13:42:08;;;;;;;14.23;10.10;;;12.40;74.90;;;12.36;55.91;94006.34;5068356;28;20554;-59
2021/12/05 13:45:06;;;;;;;16.93;10.40;;;12.40;76.10;;;12.20;55.70;94018.59;5067974;28;20529;-61
2021/12/05 13:47:39;;;;;;;16.10;10.27;;;12.20;76.30;;;12.09;55.46;94008.44;5068094;28;20447;-61
2021/12/05 13:50:32;;;;;;;15.50;10.37;;;12.10;75.80;;;12.00;56.58;94006.81;5067621;28;20506;-60
2021/12/05 13:53:30;;;;;;;16.20;11.10;;;12.00;77.70;;;11.92;56.48;94012.09;5065781;28;20461;-61
2021/12/05 13:56:09;;;;;;;23.63;10.70;;;11.90;77.60;;;11.87;56.71;94002.06;5066777;28;20479;-60
2021/12/05 13:58:47;;;;;;;25.33;9.60;;;11.90;78.60;;;11.81;56.41;94006.19;5066045;28;20485;-61
2021/12/05 14:01:23;;;;;;;14.53;8.73;;;11.80;77.60;;;11.72;56.94;94003.75;5067615;28;20482;-60
2021/12/05 14:04:24;;;;;;;12.87;9.40;;;11.70;78.50;;;11.62;56.62;94010.00;5066045;28;20504;-62
2021/12/05 14:06:58;;;;;;;14.37;10.10;;;11.70;77.80;;;11.53;56.67;94005.75;5066424;28;20535;-59
2021/12/05 14:09:32;;;;;;;18.33;9.87;;;11.60;78.80;;;11.46;56.92;94016.13;5067192;28;20473;-60
2021/12/05 14:12:04;;;;;;;28.83;12.60;;;11.50;79.20;;;11.37;57.14;94017.13;5067814;28;21022;-59
2021/12/05 14:14:35;;;;;;;14.70;9.73;;;11.40;79.30;;;11.27;57.45;94017.28;5066390;28;20981;-59
2021/12/05 14:17:04;;;;;;;13.53;9.77;;;11.30;80.00;;;11.21;57.64;94014.50;5066718;28;21072;-61
2021/12/05 14:19:35;;;;;;;18.70;11.23;;;11.20;80.20;;;11.13;57.78;94010.88;5067739;28;20504;-59
2021/12/05 14:22:05;;;;;;;14.60;10.60;;;11.20;80.70;;;11.06;57.97;94014.31;5064897;28;20806;-60
2021/12/05 14:24:35;;;;;;;12.40;9.47;;;11.10;80.90;;;10.99;57.84;94006.25;5066962;28;20454;-60
2021/12/05 14:27:04;;;;;;;17.17;9.40;;;11.00;80.90;;;10.93;57.83;94020.06;5067310;28;20651;-59
2021/12/05 14:29:33;;;;;;;15.13;10.53;;;11.00;80.90;;;10.88;58.11;94011.84;5065696;28;20470;-60
2021/12/05 14:32:04;;;;;;;15.83;9.70;;;10.90;81.20;;;10.81;58.11;94016.91;5068481;28;20896;-58
2021/12/05 14:34:32;;;;;;;19.40;11.53;;;10.90;81.20;;;10.76;58.21;94016.59;5067079;28;20455;-63
2021/12/05 14:37:02;;;;;;;22.67;11.47;;;10.80;81.70;;;10.70;58.77;94019.88;5068393;28;20479;-59
2021/12/05 14:39:32;;;;;;;20.47;13.03;;;10.80;82.50;;;10.64;58.56;94020.50;5062262;28;20990;-59
2021/12/05 14:42:01;;;;;;;24.90;12.70;;;10.70;82.00;;;10.58;59.17;94020.19;5066495;28;20492;-59
2021/12/05 14:44:28;;;;;;;20.63;13.20;;;10.60;83.50;;;10.56;59.13;94021.31;5066198;28;20561;-58
2021/12/05 14:47:00;;;;;;;35.97;13.33;;;10.60;83.20;;;10.50;59.36;94020.16;5067401;28;20497;-59